Time;durP1;ratioP1;P1;durP2;ratioP2;P2;SDS_P1;SDS_P2;PMS_P1;PMS_P2;Temp;Humidity;BMP_temperature;BMP_pressure;BME280_temperature;BME280_humidity;BME280_pressure;Samples;Min_cycle;Max_cycle;Signal;HPM_P1;HPM_P2
2024/03/01 00:01:23;;;;;;;56.30;18.25;;;;;;;;;;10433963;28;20053;-74
2024/03/01 00:06:27;;;;;;;63.08;21.58;;;;;;;;;;10441490;28;20041;-75
2024/03/01 00:11:31;;;;;;;;;;;;;;;;;;10435901;28;20064;-75
2024/03/01 00:16:34;;;;;;;58.38;18.73;;;;;;;;;;10432582;28;19971;-76
2024/03/01 00:21:38;;;;;;;56.65;18.73;;;;;;;;;;10424616;28;20048;-74
2024/03/01 00:26:44;;;;;;;50.28;18.20;;;;;;;;;;10434508;28;20041;-76
2024/03/01 00:31:47;;;;;;;52.95;17.25;;;;;;;;;;10431964;28;20503;-76
2024/03/01 00:36:52;;;;;;;52.33;17.30;;;;;;;;;;10430157;28;20520;-76
2024/03/01 00:41:54;;;;;;;50.35;16.48;;;;;;;;;;10434730;28;20291;-74
2024/03/01 00:46:57;;;;;;;61.28;17.65;;;;;;;;;;10436148;28;20037;-74
2024/03/01 00:52:02;;;;;;;63.58;19.83;;;;;;;;;;10424570;28;20044;-75
2024/03/01 00:57:04;;;;;;;63.95;19.40;;;;;;;;;;10422827;28;20037;-75
2024/03/01 01:02:08;;;;;;;56.40;18.20;;;;;;;;;;10425910;28;20045;-73
2024/03/01 01:07:13;;;;;;;62.47;19.50;;;;;;;;;;10429124;28;20063;-75
2024/03/01 01:12:16;;;;;;;62.75;20.30;;;;;;;;;;10426579;28;20198;-75
2024/03/01 01:17:19;;;;;;;62.85;20.98;;;;;;;;;;10436744;28;20045;-76
2024/03/01 01:22:23;;;;;;;59.90;19.20;;;;;;;;;;10435445;28;20118;-75
2024/03/01 01:27:26;;;;;;;;;;;;;;;;;;10425808;28;20075;-74
2024/03/01 01:32:29;;;;;;;50.55;16.25;;;;;;;;;;10425445;28;20020;-74
2024/03/01 01:37:33;;;;;;;49.88;15.90;;;;;;;;;;10431207;28;20329;-74
2024/03/01 01:42:36;;;;;;;58.38;18.48;;;;;;;;;;10423902;28;20041;-75
2024/03/01 01:47:39;;;;;;;43.15;15.50;;;;;;;;;;10430853;28;20545;-75
2024/03/01 01:52:43;;;;;;;45.45;14.20;;;;;;;;;;10424413;28;20048;-75
2024/03/01 01:57:46;;;;;;;;;;;;;;;;;;10424468;28;20040;-75
2024/03/01 02:02:50;;;;;;;46.97;14.55;;;;;;;;;;10429793;28;19936;-74
2024/03/01 02:07:54;;;;;;;29.10;9.90;;;;;;;;;;10416006;28;20044;-75
2024/03/01 02:12:58;;;;;;;40.85;13.15;;;;;;;;;;10423105;28;20073;-74
2024/03/01 02:18:01;;;;;;;48.25;16.65;;;;;;;;;;10426409;28;20053;-75
2024/03/01 02:23:07;;;;;;;46.58;15.40;;;;;;;;;;10429991;28;20056;-75
2024/03/01 02:28:11;;;;;;;42.70;15.70;;;;;;;;;;10422979;28;20040;-75
2024/03/01 02:33:14;;;;;;;59.70;19.80;;;;;;;;;;10421662;28;20045;-74
2024/03/01 02:38:17;;;;;;;56.95;17.88;;;;;;;;;;10430242;28;20063;-74
2024/03/01 02:43:21;;;;;;;58.13;19.23;;;;;;;;;;10431471;28;20049;-74
2024/03/01 02:48:24;;;;;;;55.10;19.60;;;;;;;;;;10431444;28;20489;-74
2024/03/01 02:53:27;;;;;;;57.93;20.20;;;;;;;;;;10425940;28;20442;-75
2024/03/01 02:58:32;;;;;;;58.25;20.40;;;;;;;;;;10428772;28;20118;-74
2024/03/01 03:03:35;;;;;;;51.75;18.52;;;;;;;;;;10420983;28;20189;-75
2024/03/01 03:08:38;;;;;;;52.72;19.00;;;;;;;;;;10440952;28;20057;-73
2024/03/01 03:13:42;;;;;;;55.50;18.97;;;;;;;;;;10432986;28;20128;-76
2024/03/01 03:18:45;;;;;;;55.72;18.08;;;;;;;;;;10435559;28;20111;-74
2024/03/01 03:23:48;;;;;;;51.90;19.67;;;;;;;;;;10431250;28;20045;-74
2024/03/01 03:28:52;;;;;;;53.13;18.52;;;;;;;;;;10428512;28;20041;-73
2024/03/01 03:33:55;;;;;;;68.57;19.80;;;;;;;;;;10434329;28;20065;-74
2024/03/01 03:38:57;;;;;;;58.92;19.33;;;;;;;;;;10434783;28;20131;-74
2024/03/01 03:44:02;;;;;;;50.28;17.17;;;;;;;;;;10436028;28;20044;-74
2024/03/01 03:49:07;;;;;;;55.45;19.17;;;;;;;;;;10434179;28;20506;-74
2024/03/01 03:54:13;;;;;;;52.65;17.10;;;;;;;;;;10432243;28;20547;-74
2024/03/01 03:59:18;;;;;;;52.20;17.20;;;;;;;;;;10438865;28;20041;-74
2024/03/01 04:04:21;;;;;;;50.40;17.15;;;;;;;;;;10439745;28;20120;-74
2024/03/01 04:09:24;;;;;;;43.25;14.50;;;;;;;;;;10430639;28;20053;-74
2024/03/01 04:14:28;;;;;;;49.92;16.80;;;;;;;;;;10429279;28;20163;-75
2024/03/01 04:19:31;;;;;;;;;;;;;;;;;;10428896;28;20198;-74
2024/03/01 04:24:34;;;;;;;45.42;15.43;;;;;;;;;;10433386;28;19925;-75
2024/03/01 04:29:38;;;;;;;43.65;14.98;;;;;;;;;;10430488;28;20064;-75
2024/03/01 04:34:40;;;;;;;;;;;;;;;;;;10436559;28;20041;-75
2024/03/01 04:39:43;;;;;;;40.83;14.73;;;;;;;;;;10431419;28;19928;-75
2024/03/01 04:44:47;;;;;;;47.28;16.05;;;;;;;;;;10429384;28;20037;-74
2024/03/01 04:49:51;;;;;;;46.92;17.08;;;;;;;;;;10429435;28;20137;-74
2024/03/01 04:54:54;;;;;;;51.80;16.60;;;;;;;;;;10431258;28;20042;-75
2024/03/01 04:59:58;;;;;;;44.67;16.60;;;;;;;;;;10430738;28;20090;-73
2024/03/01 05:05:02;;;;;;;52.20;16.92;;;;;;;;;;10433905;28;20112;-74
2024/03/01 05:10:08;;;;;;;47.55;15.32;;;;;;;;;;10428529;28;20062;-73
2024/03/01 05:15:15;;;;;;;16.92;6.45;;;;;;;;;;10423883;28;20041;-74
2024/03/01 05:20:19;;;;;;;27.63;9.65;;;;;;;;;;10428794;28;20095;-75
2024/03/01 05:25:22;;;;;;;;;;;;;;;;;;10428725;28;20045;-74
2024/03/01 05:30:26;;;;;;;23.98;9.10;;;;;;;;;;10427196;28;19925;-75
2024/03/01 05:35:48;;;;;;;42.80;14.77;;;;;;;;;;10428169;28;20098;-76
2024/03/01 05:40:51;;;;;;;54.25;18.10;;;;;;;;;;10431915;28;20147;-73
2024/03/01 05:45:58;;;;;;;50.00;16.00;;;;;;;;;;10425831;28;20049;-74
2024/03/01 05:51:01;;;;;;;40.13;15.25;;;;;;;;;;10428901;28;20210;-73
2024/03/01 05:56:17;;;;;;;36.53;12.45;;;;;;;;;;10431127;28;20061;-74
2024/03/01 06:01:22;;;;;;;42.50;15.15;;;;;;;;;;10428648;28;20041;-73
2024/03/01 06:06:26;;;;;;;32.30;11.80;;;;;;;;;;10433013;28;20445;-75
2024/03/01 06:11:29;;;;;;;35.97;11.90;;;;;;;;;;10431504;28;20095;-75
2024/03/01 06:16:33;;;;;;;32.25;11.60;;;;;;;;;;10428023;28;20052;-75
2024/03/01 06:21:36;;;;;;;22.60;8.35;;;;;;;;;;10427642;28;20053;-74
2024/03/01 06:26:39;;;;;;;47.08;17.00;;;;;;;;;;10427103;28;20490;-74
2024/03/01 06:31:43;;;;;;;43.67;15.55;;;;;;;;;;10424897;28;20041;-76
2024/03/01 06:36:46;;;;;;;29.23;11.00;;;;;;;;;;10435248;28;20049;-76
2024/03/01 06:41:49;;;;;;;45.75;15.68;;;;;;;;;;10434360;28;20076;-76
2024/03/01 06:46:53;;;;;;;34.33;12.70;;;;;;;;;;10434654;28;20041;-76
2024/03/01 06:51:55;;;;;;;28.90;10.70;;;;;;;;;;10435354;28;20129;-74
2024/03/01 06:56:58;;;;;;;26.38;9.57;;;;;;;;;;10434619;28;20040;-74
2024/03/01 07:02:03;;;;;;;28.23;10.75;;;;;;;;;;10430647;28;20414;-75
2024/03/01 07:07:06;;;;;;;20.35;7.00;;;;;;;;;;10430361;28;20055;-74
2024/03/01 07:12:10;;;;;;;29.35;10.50;;;;;;;;;;10428224;28;20076;-74
2024/03/01 07:17:14;;;;;;;37.72;13.82;;;;;;;;;;10431588;28;20549;-74
2024/03/01 07:22:17;;;;;;;27.33;9.30;;;;;;;;;;10435704;28;20167;-75
2024/03/01 07:27:19;;;;;;;39.78;15.30;;;;;;;;;;10432203;28;20037;-73
2024/03/01 07:32:23;;;;;;;33.05;11.77;;;;;;;;;;10429227;28;20056;-75
2024/03/01 07:37:26;;;;;;;24.13;8.10;;;;;;;;;;10429311;28;20076;-74
2024/03/01 07:42:29;;;;;;;38.42;14.05;;;;;;;;;;10432788;28;20126;-73
2024/03/01 07:47:33;;;;;;;31.50;11.77;;;;;;;;;;10433741;28;20129;-75
2024/03/01 07:52:36;;;;;;;39.53;13.93;;;;;;;;;;10432147;28;20057;-74
2024/03/01 07:57:39;;;;;;;43.63;15.82;;;;;;;;;;10444461;28;20033;-75
2024/03/01 08:02:44;;;;;;;39.80;13.73;;;;;;;;;;10433250;28;20044;-75
2024/03/01 08:07:48;;;;;;;39.47;12.95;;;;;;;;;;10428376;28;20037;-74
2024/03/01 08:12:51;;;;;;;42.10;14.43;;;;;;;;;;10432690;28;20532;-73
2024/03/01 08:17:55;;;;;;;38.83;14.20;;;;;;;;;;10424259;28;20187;-74
2024/03/01 08:22:58;;;;;;;;;;;;;;;;;;10426075;28;20095;-74
2024/03/01 08:28:01;;;;;;;47.05;16.83;;;;;;;;;;10432709;28;19924;-74
2024/03/01 08:33:05;;;;;;;46.63;17.25;;;;;;;;;;10429269;28;20051;-75
2024/03/01 08:38:28;;;;;;;42.40;13.60;;;;;;;;;;10430571;28;20128;-74
2024/03/01 08:43:31;;;;;;;38.90;14.38;;;;;;;;;;10431001;28;20056;-75
2024/03/01 08:48:35;;;;;;;46.47;15.25;;;;;;;;;;10428097;28;20072;-73
2024/03/01 08:53:51;;;;;;;41.63;14.20;;;;;;;;;;10424363;28;20098;-74
2024/03/01 08:58:54;;;;;;;39.80;14.05;;;;;;;;;;10419252;28;20218;-74
2024/03/01 09:04:03;;;;;;;43.87;14.40;;;;;;;;;;10422151;28;20145;-76
2024/03/01 09:09:06;;;;;;;36.65;13.00;;;;;;;;;;10424825;28;20056;-75
2024/03/01 09:14:18;;;;;;;41.53;13.57;;;;;;;;;;10423385;28;20731;-75
2024/03/01 09:19:24;;;;;;;48.67;15.57;;;;;;;;;;10428778;28;20033;-77
2024/03/01 09:24:26;;;;;;;41.53;15.18;;;;;;;;;;10428468;28;20041;-76
2024/03/01 09:29:36;;;;;;;29.73;9.95;;;;;;;;;;10425180;28;20041;-77
2024/03/01 09:34:40;;;;;;;49.47;15.40;;;;;;;;;;10428371;28;20057;-77
2024/03/01 09:39:43;;;;;;;47.22;15.25;;;;;;;;;;10421732;28;20146;-76
2024/03/01 09:44:51;;;;;;;39.50;14.82;;;;;;;;;;10426160;28;20040;-77
2024/03/01 09:50:03;;;;;;;37.22;11.18;;;;;;;;;;10425202;28;20040;-77
2024/03/01 09:55:10;;;;;;;31.92;10.13;;;;;;;;;;10425404;28;20131;-77
2024/03/01 10:00:13;;;;;;;43.00;16.00;;;;;;;;;;10430581;28;20486;-77
2024/03/01 10:05:28;;;;;;;39.55;12.77;;;;;;;;;;10424519;28;20266;-77
2024/03/01 10:10:49;;;;;;;51.63;15.63;;;;;;;;;;10414181;28;20045;-75
2024/03/01 10:15:57;;;;;;;38.85;13.40;;;;;;;;;;10424530;28;20450;-76
2024/03/01 10:21:07;;;;;;;42.58;14.32;;;;;;;;;;10422456;28;20420;-76
2024/03/01 10:26:12;;;;;;;47.35;16.08;;;;;;;;;;10424732;28;20186;-76
2024/03/01 10:31:21;;;;;;;41.35;15.63;;;;;;;;;;10420287;28;20048;-76
2024/03/01 10:36:32;;;;;;;31.92;12.32;;;;;;;;;;10421286;28;20353;-77
2024/03/01 10:41:41;;;;;;;45.17;15.68;;;;;;;;;;10424922;28;20045;-75
2024/03/01 10:46:51;;;;;;;42.90;15.32;;;;;;;;;;10425645;28;20596;-76
2024/03/01 10:51:59;;;;;;;34.83;12.10;;;;;;;;;;10424918;28;20045;-76
2024/03/01 10:57:03;;;;;;;44.47;15.85;;;;;;;;;;10424801;28;20068;-76
2024/03/01 11:02:08;;;;;;;46.25;15.00;;;;;;;;;;10424227;28;20558;-76
2024/03/01 11:07:15;;;;;;;45.67;16.35;;;;;;;;;;10427866;28;20451;-75
2024/03/01 11:12:21;;;;;;;39.70;14.77;;;;;;;;;;10422620;28;20041;-75
2024/03/01 11:17:26;;;;;;;36.75;13.80;;;;;;;;;;10421359;28;20053;-75
2024/03/01 11:22:31;;;;;;;21.88;8.32;;;;;;;;;;10418435;28;20057;-76
2024/03/01 11:27:36;;;;;;;40.20;15.23;;;;;;;;;;10422926;28;20055;-75
2024/03/01 11:32:42;;;;;;;34.25;14.15;;;;;;;;;;10430561;28;20118;-74
2024/03/01 11:37:57;;;;;;;42.60;15.43;;;;;;;;;;10432266;28;20044;-75
2024/03/01 11:43:07;;;;;;;41.30;15.15;;;;;;;;;;10430731;28;20064;-75
2024/03/01 11:48:20;;;;;;;43.70;15.38;;;;;;;;;;10429839;28;20037;-76
2024/03/01 11:53:36;;;;;;;30.10;9.98;;;;;;;;;;10431863;28;20125;-75
2024/03/01 11:58:45;;;;;;;33.80;12.38;;;;;;;;;;10426451;28;20133;-74
2024/03/01 12:04:01;;;;;;;30.33;11.43;;;;;;;;;;10432078;28;20045;-74
2024/03/01 12:09:13;;;;;;;29.10;11.15;;;;;;;;;;10426032;28;20052;-75
2024/03/01 12:14:20;;;;;;;27.92;10.18;;;;;;;;;;10433667;28;20434;-75
2024/03/01 12:19:28;;;;;;;29.10;10.30;;;;;;;;;;10431910;28;20034;-76
2024/03/01 12:24:34;;;;;;;27.63;9.40;;;;;;;;;;10427041;28;20052;-76
2024/03/01 12:29:44;;;;;;;24.98;9.43;;;;;;;;;;10431763;28;20091;-75
2024/03/01 12:34:58;;;;;;;20.90;7.55;;;;;;;;;;10434084;28;20144;-75
2024/03/01 12:40:15;;;;;;;24.35;9.48;;;;;;;;;;10425183;28;20584;-75
2024/03/01 12:45:27;;;;;;;24.60;9.35;;;;;;;;;;10424531;28;20121;-75
2024/03/01 12:50:35;;;;;;;18.80;7.18;;;;;;;;;;10426861;28;20053;-77
2024/03/01 12:55:52;;;;;;;24.08;8.52;;;;;;;;;;10428904;28;20053;-75
2024/03/01 13:00:56;;;;;;;23.75;8.93;;;;;;;;;;10434116;28;20045;-76
2024/03/01 13:05:59;;;;;;;17.00;6.70;;;;;;;;;;10434451;28;20527;-75
2024/03/01 13:11:04;;;;;;;27.08;9.68;;;;;;;;;;10427970;28;20627;-76
2024/03/01 13:16:10;;;;;;;21.98;8.77;;;;;;;;;;10422999;28;20049;-75
2024/03/01 13:21:15;;;;;;;20.45;8.45;;;;;;;;;;10428112;28;20067;-76
2024/03/01 13:26:31;;;;;;;21.05;8.80;;;;;;;;;;10424467;28;20515;-76
2024/03/01 13:31:37;;;;;;;21.63;8.20;;;;;;;;;;10428214;28;20091;-75
2024/03/01 13:36:42;;;;;;;21.40;7.90;;;;;;;;;;10426391;28;20057;-75
2024/03/01 13:42:04;;;;;;;24.05;7.55;;;;;;;;;;10418064;28;20199;-76
2024/03/01 13:47:13;;;;;;;15.10;6.32;;;;;;;;;;10421840;28;20049;-75
2024/03/01 13:52:16;;;;;;;22.67;9.35;;;;;;;;;;10426326;28;20143;-75
2024/03/01 13:57:22;;;;;;;23.02;8.25;;;;;;;;;;10425829;28;20041;-76
2024/03/01 14:02:25;;;;;;;19.50;8.13;;;;;;;;;;10426922;28;20423;-76
2024/03/01 14:07:29;;;;;;;18.93;6.57;;;;;;;;;;10426248;28;20084;-75
2024/03/01 14:12:32;;;;;;;20.92;7.28;;;;;;;;;;10426569;28;20388;-76
2024/03/01 14:17:35;;;;;;;22.25;8.32;;;;;;;;;;10421035;28;20529;-75
2024/03/01 14:22:38;;;;;;;18.83;7.90;;;;;;;;;;10430509;28;20040;-74
2024/03/01 14:27:45;;;;;;;19.90;7.40;;;;;;;;;;10427753;28;20040;-74
2024/03/01 14:32:49;;;;;;;19.27;7.38;;;;;;;;;;10424000;28;20069;-76
2024/03/01 14:37:53;;;;;;;18.58;6.68;;;;;;;;;;10430660;28;20065;-74
2024/03/01 14:43:00;;;;;;;14.55;5.82;;;;;;;;;;10427276;28;20076;-77
2024/03/01 14:48:03;;;;;;;17.95;6.50;;;;;;;;;;10422681;28;20044;-75
2024/03/01 14:53:06;;;;;;;17.10;6.40;;;;;;;;;;10423206;28;20053;-75
2024/03/01 14:58:11;;;;;;;17.27;6.43;;;;;;;;;;10419434;28;20043;-76
2024/03/01 15:03:14;;;;;;;14.13;4.45;;;;;;;;;;10428516;28;20469;-75
2024/03/01 15:08:19;;;;;;;20.40;7.03;;;;;;;;;;10435094;28;20098;-74
2024/03/01 15:13:27;;;;;;;17.30;6.43;;;;;;;;;;10432818;28;20508;-76
2024/03/01 15:18:30;;;;;;;18.65;6.63;;;;;;;;;;10430373;28;20041;-77
2024/03/01 15:23:38;;;;;;;17.80;6.63;;;;;;;;;;10434533;28;20045;-76
2024/03/01 15:28:43;;;;;;;19.50;7.10;;;;;;;;;;10427269;28;20076;-75
2024/03/01 15:33:49;;;;;;;17.08;6.03;;;;;;;;;;10433175;28;20182;-74
2024/03/01 15:38:55;;;;;;;18.58;6.75;;;;;;;;;;10432857;28;20037;-74
2024/03/01 15:44:00;;;;;;;13.45;5.82;;;;;;;;;;10480618;28;20055;-75
2024/03/01 15:49:02;;;;;;;15.80;6.35;;;;;;;;;;10479556;28;20064;-75
2024/03/01 15:54:05;;;;;;;14.60;6.03;;;;;;;;;;10477307;28;20227;-75
2024/03/01 15:59:10;;;;;;;15.27;6.20;;;;;;;;;;10470869;28;20036;-74
2024/03/01 16:04:13;;;;;;;;;;;;;;;;;;10482036;28;20051;-75
2024/03/01 16:09:16;;;;;;;14.57;5.22;;;;;;;;;;10457361;28;20073;-76
2024/03/01 16:14:20;;;;;;;16.20;6.03;;;;;;;;;;10470963;28;20156;-75
2024/03/01 16:19:23;;;;;;;11.82;4.93;;;;;;;;;;10463244;28;20094;-75
2024/03/01 16:24:26;;;;;;;12.63;5.50;;;;;;;;;;10486743;28;20052;-74
2024/03/01 16:29:34;;;;;;;14.18;5.60;;;;;;;;;;10477438;28;20048;-75
2024/03/01 16:34:37;;;;;;;15.77;5.53;;;;;;;;;;10463595;28;20056;-75
2024/03/01 16:39:40;;;;;;;13.57;5.28;;;;;;;;;;10463518;28;20394;-74
2024/03/01 16:44:44;;;;;;;14.10;5.23;;;;;;;;;;10467898;28;20055;-74
2024/03/01 16:49:47;;;;;;;12.77;5.40;;;;;;;;;;10474351;28;20132;-75
2024/03/01 16:54:50;;;;;;;15.73;5.68;;;;;;;;;;10465074;28;20048;-75
2024/03/01 16:59:55;;;;;;;16.40;5.78;;;;;;;;;;10462020;28;20219;-75
2024/03/01 17:04:58;;;;;;;13.25;4.72;;;;;;;;;;10470151;28;20043;-75
2024/03/01 17:10:02;;;;;;;15.47;6.07;;;;;;;;;;10473466;28;20040;-76
2024/03/01 17:15:08;;;;;;;11.68;5.00;;;;;;;;;;10465364;28;20045;-76
2024/03/01 17:20:11;;;;;;;11.07;4.05;;;;;;;;;;10438308;28;20036;-75
2024/03/01 17:25:14;;;;;;;;;;;;;;;;;;10457967;28;20040;-74
2024/03/01 17:30:18;;;;;;;10.70;4.47;;;;;;;;;;10462906;28;19928;-75
2024/03/01 17:35:21;;;;;;;12.27;4.15;;;;;;;;;;10458219;28;20459;-75
2024/03/01 17:40:24;;;;;;;11.02;4.10;;;;;;;;;;10462577;28;20397;-76
2024/03/01 17:45:28;;;;;;;8.00;3.28;;;;;;;;;;10508133;28;20382;-75
2024/03/01 17:50:31;;;;;;;3.33;1.55;;;;;;;;;;10512888;28;20516;-75
2024/03/01 17:55:34;;;;;;;13.05;4.60;;;;;;;;;;10509307;28;20080;-74
2024/03/01 18:00:38;;;;;;;11.02;4.65;;;;;;;;;;10506733;28;20036;-75
2024/03/01 18:05:41;;;;;;;;;;;;;;;;;;10513805;28;20106;-75
2024/03/01 18:10:44;;;;;;;10.70;4.72;;;;;;;;;;10503098;28;19924;-77
2024/03/01 18:15:48;;;;;;;13.15;5.00;;;;;;;;;;10511613;28;20040;-76
2024/03/01 18:20:50;;;;;;;14.95;4.55;;;;;;;;;;10506792;28;20044;-76
2024/03/01 18:25:54;;;;;;;9.25;3.72;;;;;;;;;;10494574;28;20138;-76
2024/03/01 18:31:01;;;;;;;8.55;2.78;;;;;;;;;;10507637;28;20055;-75
2024/03/01 18:36:04;;;;;;;9.80;4.13;;;;;;;;;;10513204;28;20044;-75
2024/03/01 18:41:07;;;;;;;9.23;3.83;;;;;;;;;;10515399;28;20512;-76
2024/03/01 18:46:14;;;;;;;9.65;3.50;;;;;;;;;;10518312;28;20054;-76
2024/03/01 18:51:18;;;;;;;3.67;2.05;;;;;;;;;;10491198;28;20075;-76
2024/03/01 18:56:21;;;;;;;9.65;3.63;;;;;;;;;;10467825;28;20055;-75
2024/03/01 19:01:26;;;;;;;5.70;2.47;;;;;;;;;;10468929;28;20051;-76
2024/03/01 19:06:29;;;;;;;4.80;1.83;;;;;;;;;;10473334;28;20171;-74
2024/03/01 19:11:32;;;;;;;8.98;3.47;;;;;;;;;;10473697;28;20056;-75
2024/03/01 19:16:36;;;;;;;7.85;3.30;;;;;;;;;;10474775;28;20051;-74
2024/03/01 19:21:39;;;;;;;10.10;4.50;;;;;;;;;;10470995;28;20124;-76
2024/03/01 19:26:42;;;;;;;13.43;5.32;;;;;;;;;;10472103;28;20193;-76
2024/03/01 19:31:47;;;;;;;8.80;3.92;;;;;;;;;;10478760;28;20529;-76
2024/03/01 19:36:49;;;;;;;4.38;1.80;;;;;;;;;;10477649;28;20036;-75
2024/03/01 19:41:53;;;;;;;10.68;4.32;;;;;;;;;;10478843;28;20040;-74
2024/03/01 19:46:58;;;;;;;10.13;3.63;;;;;;;;;;10481943;28;20145;-74
2024/03/01 19:52:00;;;;;;;9.98;4.40;;;;;;;;;;10489141;28;20536;-74
2024/03/01 19:57:04;;;;;;;14.38;5.80;;;;;;;;;;10521510;28;20048;-75
2024/03/01 20:02:08;;;;;;;10.48;4.18;;;;;;;;;;10528728;28;20104;-75
2024/03/01 20:07:11;;;;;;;3.00;1.67;;;;;;;;;;10522434;28;20044;-75
2024/03/01 20:12:15;;;;;;;6.82;2.92;;;;;;;;;;10519547;28;20497;-76
2024/03/01 20:17:20;;;;;;;10.65;5.50;;;;;;;;;;10513218;28;20091;-75
2024/03/01 20:22:23;;;;;;;5.32;2.45;;;;;;;;;;10526201;28;20137;-75
2024/03/01 20:27:25;;;;;;;7.40;3.20;;;;;;;;;;10527293;28;20052;-75
2024/03/01 20:32:30;;;;;;;11.65;4.55;;;;;;;;;;10528361;28;20119;-74
2024/03/01 20:37:32;;;;;;;;;;;;;;;;;;10524458;28;20048;-75
2024/03/01 20:42:35;;;;;;;5.18;2.70;;;;;;;;;;10506135;28;19930;-77
2024/03/01 20:47:39;;;;;;;10.40;4.57;;;;;;;;;;10524180;28;20490;-75
2024/03/01 20:52:42;;;;;;;12.35;4.47;;;;;;;;;;10521356;28;20040;-75
2024/03/01 20:57:45;;;;;;;9.00;4.38;;;;;;;;;;10522731;28;20067;-75
2024/03/01 21:02:49;;;;;;;11.68;5.25;;;;;;;;;;10520453;28;20068;-75
2024/03/01 21:07:51;;;;;;;;;;;;;;;;;;10511829;28;20055;-75
2024/03/01 21:12:54;;;;;;;12.57;5.85;;;;;;;;;;10505767;28;19931;-75
2024/03/01 21:17:58;;;;;;;17.80;6.93;;;;;;;;;;10518620;28;20044;-75
2024/03/01 21:23:01;;;;;;;13.32;5.72;;;;;;;;;;10511726;28;20120;-75
2024/03/01 21:28:05;;;;;;;12.55;6.03;;;;;;;;;;10506408;28;20710;-76
2024/03/01 21:33:09;;;;;;;14.23;6.77;;;;;;;;;;10511737;28;20133;-74
2024/03/01 21:38:12;;;;;;;12.27;5.97;;;;;;;;;;10516362;28;20312;-77
2024/03/01 21:43:15;;;;;;;11.25;4.53;;;;;;;;;;10515610;28;20130;-73
2024/03/01 21:48:19;;;;;;;9.68;3.97;;;;;;;;;;10511333;28;20044;-74
2024/03/01 21:53:21;;;;;;;10.07;4.85;;;;;;;;;;10521265;28;20040;-75
2024/03/01 21:58:24;;;;;;;10.70;4.65;;;;;;;;;;10516149;28;20071;-76
2024/03/01 22:03:28;;;;;;;12.55;5.65;;;;;;;;;;10513425;28;20052;-75
2024/03/01 22:08:31;;;;;;;18.27;6.63;;;;;;;;;;10515131;28;20288;-77
2024/03/01 22:13:34;;;;;;;9.27;4.63;;;;;;;;;;10513418;28;20048;-75
2024/03/01 22:18:38;;;;;;;11.77;5.00;;;;;;;;;;10515163;28;20209;-76
2024/03/01 22:23:41;;;;;;;12.43;4.43;;;;;;;;;;10511752;28;20040;-74
2024/03/01 22:28:44;;;;;;;11.05;4.82;;;;;;;;;;10507947;28;20041;-75
2024/03/01 22:33:48;;;;;;;10.45;5.13;;;;;;;;;;10519032;28;20036;-76
2024/03/01 22:38:51;;;;;;;11.43;3.97;;;;;;;;;;10508594;28;20044;-76
2024/03/01 22:43:54;;;;;;;10.55;4.22;;;;;;;;;;10506786;28;20047;-75
2024/03/01 22:48:58;;;;;;;27.50;11.38;;;;;;;;;;10513890;28;20128;-75
2024/03/01 22:54:01;;;;;;;11.18;4.00;;;;;;;;;;10508004;28;20581;-76
2024/03/01 22:59:04;;;;;;;7.10;3.03;;;;;;;;;;10514000;28;20158;-75
2024/03/01 23:04:12;;;;;;;7.17;3.27;;;;;;;;;;10495010;28;20370;-74
2024/03/01 23:09:18;;;;;;;6.65;3.30;;;;;;;;;;10510738;28;20325;-75
2024/03/01 23:14:39;;;;;;;14.00;5.45;;;;;;;;;;10512251;28;20477;-76
2024/03/01 23:19:44;;;;;;;13.07;5.15;;;;;;;;;;10508497;28;20135;-75
2024/03/01 23:24:47;;;;;;;12.75;5.03;;;;;;;;;;10518091;28;20043;-75
2024/03/01 23:29:51;;;;;;;10.50;4.47;;;;;;;;;;10517534;28;20036;-75
2024/03/01 23:34:54;;;;;;;13.32;5.18;;;;;;;;;;10521242;28;20032;-76
2024/03/01 23:39:57;;;;;;;7.70;4.07;;;;;;;;;;10517296;28;20066;-75
2024/03/01 23:45:00;;;;;;;12.27;4.95;;;;;;;;;;10522057;28;20135;-75
2024/03/01 23:50:04;;;;;;;2.53;1.02;;;;;;;;;;10518610;28;20082;-76
2024/03/01 23:55:09;;;;;;;12.57;5.50;;;;;;;;;;10519803;28;20048;-75
